sensor_id;sensor_type;location;lat;lon;timestamp;pressure;altitude;pressure_sealevel;temperature;humidity
65376;BME280;51976;47.332;9.404;2023-08-17T00:00:42;92909.00;;;20.04;65.92
65376;BME280;51976;47.332;9.404;2023-08-17T00:03:07;92918.38;;;19.70;66.99
65376;BME280;51976;47.332;9.404;2023-08-17T00:05:33;92913.44;;;19.42;67.88
65376;BME280;51976;47.332;9.404;2023-08-17T00:08:00;92914.38;;;19.46;68.13
65376;BME280;51976;47.332;9.404;2023-08-17T00:10:27;92906.28;;;19.71;67.82
65376;BME280;51976;47.332;9.404;2023-08-17T00:12:53;92909.22;;;19.99;66.64
65376;BME280;51976;47.332;9.404;2023-08-17T00:15:19;92906.41;;;20.07;66.49
65376;BME280;51976;47.332;9.404;2023-08-17T00:17:44;92919.03;;;20.00;66.99
65376;BME280;51976;47.332;9.404;2023-08-17T00:20:10;92917.28;;;19.83;67.32
65376;BME280;51976;47.332;9.404;2023-08-17T00:22:35;92918.41;;;19.82;67.37
65376;BME280;51976;47.332;9.404;2023-08-17T00:25:02;92930.84;;;19.79;67.84
65376;BME280;51976;47.332;9.404;2023-08-17T00:27:31;92926.34;;;19.96;67.54
65376;BME280;51976;47.332;9.404;2023-08-17T00:29:56;92916.09;;;20.05;67.17
65376;BME280;51976;47.332;9.404;2023-08-17T00:32:22;92921.75;;;19.87;67.54
65376;BME280;51976;47.332;9.404;2023-08-17T00:34:47;92916.41;;;19.91;67.25
65376;BME280;51976;47.332;9.404;2023-08-17T00:37:13;92918.03;;;20.04;66.76
65376;BME280;51976;47.332;9.404;2023-08-17T00:39:38;92917.22;;;20.04;66.62
65376;BME280;51976;47.332;9.404;2023-08-17T00:42:04;92920.09;;;20.07;66.52
65376;BME280;51976;47.332;9.404;2023-08-17T00:44:29;92923.31;;;19.76;67.41
65376;BME280;51976;47.332;9.404;2023-08-17T00:46:55;92923.81;;;19.57;67.86
65376;BME280;51976;47.332;9.404;2023-08-17T00:49:21;92918.59;;;19.65;67.77
65376;BME280;51976;47.332;9.404;2023-08-17T00:51:46;92910.88;;;19.79;67.37
65376;BME280;51976;47.332;9.404;2023-08-17T00:54:11;92921.75;;;19.87;66.66
65376;BME280;51976;47.332;9.404;2023-08-17T00:56:37;92915.22;;;19.80;66.70
65376;BME280;51976;47.332;9.404;2023-08-17T00:59:03;92915.63;;;19.70;66.65
65376;BME280;51976;47.332;9.404;2023-08-17T01:01:30;92916.91;;;19.72;66.97
65376;BME280;51976;47.332;9.404;2023-08-17T01:03:55;92915.69;;;19.82;66.59
65376;BME280;51976;47.332;9.404;2023-08-17T01:06:20;92912.28;;;19.85;66.44
65376;BME280;51976;47.332;9.404;2023-08-17T01:08:46;92900.47;;;19.93;66.26
65376;BME280;51976;47.332;9.404;2023-08-17T01:14:23;92914.69;;;19.99;66.06
65376;BME280;51976;47.332;9.404;2023-08-17T01:17:05;92909.16;;;19.74;66.60
65376;BME280;51976;47.332;9.404;2023-08-17T01:19:32;92922.50;;;19.76;66.48
65376;BME280;51976;47.332;9.404;2023-08-17T01:22:03;92912.63;;;19.83;66.54
65376;BME280;51976;47.332;9.404;2023-08-17T01:24:30;92913.75;;;19.82;66.12
65376;BME280;51976;47.332;9.404;2023-08-17T01:26:55;92911.94;;;19.86;65.54
65376;BME280;51976;47.332;9.404;2023-08-17T01:29:21;92907.59;;;19.85;65.28
65376;BME280;51976;47.332;9.404;2023-08-17T01:32:09;92906.47;;;19.86;65.32
65376;BME280;51976;47.332;9.404;2023-08-17T01:34:45;92911.75;;;19.58;66.28
65376;BME280;51976;47.332;9.404;2023-08-17T01:37:11;92917.22;;;19.38;66.33
65376;BME280;51976;47.332;9.404;2023-08-17T01:39:43;92906.75;;;19.40;66.10
65376;BME280;51976;47.332;9.404;2023-08-17T01:42:10;92909.75;;;19.26;65.87
65376;BME280;51976;47.332;9.404;2023-08-17T01:44:38;92914.94;;;19.40;65.28
65376;BME280;51976;47.332;9.404;2023-08-17T01:47:04;92908.41;;;19.53;65.29
65376;BME280;51976;47.332;9.404;2023-08-17T01:49:30;92904.47;;;19.63;65.15
65376;BME280;51976;47.332;9.404;2023-08-17T01:51:55;92897.19;;;19.67;64.82
65376;BME280;51976;47.332;9.404;2023-08-17T01:54:21;92902.59;;;19.54;65.82
65376;BME280;51976;47.332;9.404;2023-08-17T01:56:46;92907.06;;;19.59;66.20
65376;BME280;51976;47.332;9.404;2023-08-17T01:59:12;92899.19;;;19.57;65.98
65376;BME280;51976;47.332;9.404;2023-08-17T02:01:38;92897.59;;;19.56;66.25
65376;BME280;51976;47.332;9.404;2023-08-17T02:04:03;92892.97;;;19.48;66.59
65376;BME280;51976;47.332;9.404;2023-08-17T02:06:29;92903.69;;;19.41;66.50
65376;BME280;51976;47.332;9.404;2023-08-17T02:08:54;92900.22;;;19.32;67.25
65376;BME280;51976;47.332;9.404;2023-08-17T02:11:20;92901.13;;;19.36;67.05
65376;BME280;51976;47.332;9.404;2023-08-17T02:13:45;92904.22;;;19.35;67.02
65376;BME280;51976;47.332;9.404;2023-08-17T02:16:11;92904.22;;;19.35;66.84
65376;BME280;51976;47.332;9.404;2023-08-17T02:18:36;92905.59;;;19.41;66.53
65376;BME280;51976;47.332;9.404;2023-08-17T02:21:02;92899.00;;;19.42;66.56
65376;BME280;51976;47.332;9.404;2023-08-17T02:23:27;92898.53;;;19.40;66.32
65376;BME280;51976;47.332;9.404;2023-08-17T02:25:52;92900.88;;;19.29;66.45
65376;BME280;51976;47.332;9.404;2023-08-17T02:28:18;92888.41;;;19.19;66.34
65376;BME280;51976;47.332;9.404;2023-08-17T02:30:43;92896.22;;;19.30;66.38
65376;BME280;51976;47.332;9.404;2023-08-17T02:33:08;92902.59;;;19.34;65.95
65376;BME280;51976;47.332;9.404;2023-08-17T02:35:34;92898.75;;;19.35;65.92
65376;BME280;51976;47.332;9.404;2023-08-17T02:37:59;92897.47;;;19.32;65.84
65376;BME280;51976;47.332;9.404;2023-08-17T02:40:25;92900.81;;;19.38;65.88
65376;BME280;51976;47.332;9.404;2023-08-17T02:42:50;92890.59;;;19.26;66.00
65376;BME280;51976;47.332;9.404;2023-08-17T02:45:15;92902.00;;;18.86;67.16
65376;BME280;51976;47.332;9.404;2023-08-17T02:47:41;92897.88;;;18.80;67.60
65376;BME280;51976;47.332;9.404;2023-08-17T02:50:06;92901.13;;;18.74;68.08
65376;BME280;51976;47.332;9.404;2023-08-17T02:52:32;92890.25;;;18.65;67.75
65376;BME280;51976;47.332;9.404;2023-08-17T02:54:57;92897.72;;;18.77;67.53
65376;BME280;51976;47.332;9.404;2023-08-17T02:57:23;92899.41;;;18.90;67.26
65376;BME280;51976;47.332;9.404;2023-08-17T02:59:49;92898.53;;;18.98;66.54
65376;BME280;51976;47.332;9.404;2023-08-17T03:02:14;92889.53;;;18.98;66.46
65376;BME280;51976;47.332;9.404;2023-08-17T03:04:39;92899.06;;;18.91;66.67
65376;BME280;51976;47.332;9.404;2023-08-17T03:07:06;92892.13;;;18.94;66.24
65376;BME280;51976;47.332;9.404;2023-08-17T03:09:31;92890.16;;;19.03;66.24
65376;BME280;51976;47.332;9.404;2023-08-17T03:11:57;92904.09;;;19.10;65.85
65376;BME280;51976;47.332;9.404;2023-08-17T03:14:22;92892.41;;;19.01;65.83
65376;BME280;51976;47.332;9.404;2023-08-17T03:16:47;92891.41;;;19.06;66.11
65376;BME280;51976;47.332;9.404;2023-08-17T03:19:13;92888.22;;;18.83;66.29
65376;BME280;51976;47.332;9.404;2023-08-17T03:21:38;92890.22;;;18.94;65.97
65376;BME280;51976;47.332;9.404;2023-08-17T03:24:04;92898.38;;;18.74;66.12
65376;BME280;51976;47.332;9.404;2023-08-17T03:26:30;92897.72;;;18.77;65.91
65376;BME280;51976;47.332;9.404;2023-08-17T03:28:55;92887.13;;;18.75;65.79
65376;BME280;51976;47.332;9.404;2023-08-17T03:31:21;92885.81;;;18.81;65.93
65376;BME280;51976;47.332;9.404;2023-08-17T03:33:47;92892.88;;;18.82;66.02
65376;BME280;51976;47.332;9.404;2023-08-17T03:36:12;92886.47;;;18.78;66.03
65376;BME280;51976;47.332;9.404;2023-08-17T03:38:38;92887.94;;;18.76;66.21
65376;BME280;51976;47.332;9.404;2023-08-17T03:41:05;92884.75;;;18.74;66.45
65376;BME280;51976;47.332;9.404;2023-08-17T03:43:30;92888.13;;;18.71;66.88
65376;BME280;51976;47.332;9.404;2023-08-17T03:45:59;92885.88;;;18.73;66.67
65376;BME280;51976;47.332;9.404;2023-08-17T03:48:24;92882.06;;;18.65;67.22
65376;BME280;51976;47.332;9.404;2023-08-17T03:50:54;92893.88;;;18.78;66.73
65376;BME280;51976;47.332;9.404;2023-08-17T03:53:20;92892.78;;;18.70;67.09
65376;BME280;51976;47.332;9.404;2023-08-17T03:55:49;92897.53;;;18.82;66.82
65376;BME280;51976;47.332;9.404;2023-08-17T03:58:15;92890.94;;;18.83;66.51
65376;BME280;51976;47.332;9.404;2023-08-17T04:00:41;92890.94;;;18.83;66.20
65376;BME280;51976;47.332;9.404;2023-08-17T04:03:07;92893.69;;;18.83;66.58
65376;BME280;51976;47.332;9.404;2023-08-17T04:05:33;92891.75;;;18.83;66.25
65376;BME280;51976;47.332;9.404;2023-08-17T04:07:59;92897.13;;;18.92;66.07
65376;BME280;51976;47.332;9.404;2023-08-17T04:10:28;92892.00;;;18.90;65.58
65376;BME280;51976;47.332;9.404;2023-08-17T04:12:53;92893.69;;;18.83;65.71
65376;BME280;51976;47.332;9.404;2023-08-17T04:15:19;92895.66;;;18.74;65.89
65376;BME280;51976;47.332;9.404;2023-08-17T04:17:44;92886.81;;;18.77;65.74
65376;BME280;51976;47.332;9.404;2023-08-17T04:20:10;92893.13;;;18.69;65.87
65376;BME280;51976;47.332;9.404;2023-08-17T04:22:35;92893.44;;;18.67;65.93
65376;BME280;51976;47.332;9.404;2023-08-17T04:25:01;92894.66;;;18.49;65.92
65376;BME280;51976;47.332;9.404;2023-08-17T04:27:26;92888.25;;;18.45;66.44
65376;BME280;51976;47.332;9.404;2023-08-17T04:29:51;92892.91;;;18.44;66.39
65376;BME280;51976;47.332;9.404;2023-08-17T04:32:17;92895.94;;;18.51;66.56
65376;BME280;51976;47.332;9.404;2023-08-17T04:34:43;92893.16;;;18.60;66.05
65376;BME280;51976;47.332;9.404;2023-08-17T04:37:08;92899.28;;;18.57;66.20
65376;BME280;51976;47.332;9.404;2023-08-17T04:39:34;92887.03;;;18.63;66.16
65376;BME280;51976;47.332;9.404;2023-08-17T04:41:59;92896.66;;;18.69;65.92
65376;BME280;51976;47.332;9.404;2023-08-17T04:44:24;92896.47;;;18.74;65.97
65376;BME280;51976;47.332;9.404;2023-08-17T04:46:50;92891.50;;;18.68;65.93
65376;BME280;51976;47.332;9.404;2023-08-17T04:49:15;92895.66;;;18.74;65.44
65376;BME280;51976;47.332;9.404;2023-08-17T04:51:41;92895.34;;;18.75;65.77
65376;BME280;51976;47.332;9.404;2023-08-17T04:54:06;92891.28;;;18.81;65.44
65376;BME280;51976;47.332;9.404;2023-08-17T04:56:31;92902.34;;;18.85;65.69
65376;BME280;51976;47.332;9.404;2023-08-17T04:58:57;92907.06;;;18.76;66.01
65376;BME280;51976;47.332;9.404;2023-08-17T05:01:22;92903.34;;;18.80;65.82
65376;BME280;51976;47.332;9.404;2023-08-17T05:03:47;92908.38;;;18.90;65.61
65376;BME280;51976;47.332;9.404;2023-08-17T05:06:13;92903.88;;;18.94;65.78
65376;BME280;51976;47.332;9.404;2023-08-17T05:08:38;92898.22;;;19.41;71.05
65376;BME280;51976;47.332;9.404;2023-08-17T05:11:04;92899.47;;;19.77;69.40
65376;BME280;51976;47.332;9.404;2023-08-17T05:13:29;92892.38;;;19.97;70.21
65376;BME280;51976;47.332;9.404;2023-08-17T05:15:55;92893.44;;;20.16;68.75
65376;BME280;51976;47.332;9.404;2023-08-17T05:18:21;92895.00;;;20.05;65.48
65376;BME280;51976;47.332;9.404;2023-08-17T05:20:46;92891.72;;;19.67;63.84
65376;BME280;51976;47.332;9.404;2023-08-17T05:23:12;92893.06;;;19.19;64.51
65376;BME280;51976;47.332;9.404;2023-08-17T05:25:37;92905.34;;;19.34;67.36
65376;BME280;51976;47.332;9.404;2023-08-17T05:28:03;92905.47;;;19.91;68.76
65376;BME280;51976;47.332;9.404;2023-08-17T05:30:28;92896.16;;;20.28;66.90
65376;BME280;51976;47.332;9.404;2023-08-17T05:32:54;92892.88;;;20.35;66.57
65376;BME280;51976;47.332;9.404;2023-08-17T05:35:19;92897.81;;;20.42;64.66
65376;BME280;51976;47.332;9.404;2023-08-17T05:37:44;92895.50;;;20.56;65.31
65376;BME280;51976;47.332;9.404;2023-08-17T05:40:11;92894.94;;;20.63;64.77
65376;BME280;51976;47.332;9.404;2023-08-17T05:42:36;92896.28;;;20.81;64.87
65376;BME280;51976;47.332;9.404;2023-08-17T05:45:01;92898.34;;;20.96;63.49
65376;BME280;51976;47.332;9.404;2023-08-17T05:47:27;92899.44;;;21.07;63.58
65376;BME280;51976;47.332;9.404;2023-08-17T05:49:52;92884.13;;;21.18;63.50
65376;BME280;51976;47.332;9.404;2023-08-17T05:52:18;92889.28;;;21.32;61.95
65376;BME280;51976;47.332;9.404;2023-08-17T05:54:43;92890.47;;;21.47;61.82
65376;BME280;51976;47.332;9.404;2023-08-17T05:57:09;92890.78;;;21.30;59.53
65376;BME280;51976;47.332;9.404;2023-08-17T05:59:35;92889.06;;;21.25;59.20
65376;BME280;51976;47.332;9.404;2023-08-17T06:02:00;92889.53;;;21.27;59.21
65376;BME280;51976;47.332;9.404;2023-08-17T06:04:26;92895.34;;;21.25;59.54
65376;BME280;51976;47.332;9.404;2023-08-17T06:06:51;92880.84;;;21.25;59.20
65376;BME280;51976;47.332;9.404;2023-08-17T06:09:16;92889.91;;;21.41;59.08
65376;BME280;51976;47.332;9.404;2023-08-17T06:11:42;92891.75;;;21.65;58.43
65376;BME280;51976;47.332;9.404;2023-08-17T06:14:08;92896.41;;;21.77;57.78
65376;BME280;51976;47.332;9.404;2023-08-17T06:16:33;92896.66;;;21.72;58.19
65376;BME280;51976;47.332;9.404;2023-08-17T06:18:58;92892.88;;;22.04;57.24
65376;BME280;51976;47.332;9.404;2023-08-17T06:21:24;92903.16;;;22.23;57.03
65376;BME280;51976;47.332;9.404;2023-08-17T06:23:49;92901.28;;;22.11;57.28
65376;BME280;51976;47.332;9.404;2023-08-17T06:26:15;92889.94;;;22.44;56.81
65376;BME280;51976;47.332;9.404;2023-08-17T06:28:40;92894.22;;;22.57;56.65
65376;BME280;51976;47.332;9.404;2023-08-17T06:31:06;92904.84;;;22.59;56.81
65376;BME280;51976;47.332;9.404;2023-08-17T06:36:16;92891.06;;;23.06;55.45
65376;BME280;51976;47.332;9.404;2023-08-17T06:38:42;92896.59;;;22.75;56.40
65376;BME280;51976;47.332;9.404;2023-08-17T06:41:07;92898.38;;;22.67;56.40
65376;BME280;51976;47.332;9.404;2023-08-17T06:43:33;92906.19;;;22.97;55.85
65376;BME280;51976;47.332;9.404;2023-08-17T06:45:58;92901.72;;;23.08;55.27
65376;BME280;51976;47.332;9.404;2023-08-17T06:48:25;92903.78;;;22.63;55.78
65376;BME280;51976;47.332;9.404;2023-08-17T06:50:51;92894.66;;;22.59;55.85
65376;BME280;51976;47.332;9.404;2023-08-17T06:53:16;92897.16;;;23.15;54.85
65376;BME280;51976;47.332;9.404;2023-08-17T06:55:44;92889.19;;;23.10;54.75
65376;BME280;51976;47.332;9.404;2023-08-17T06:58:10;92895.72;;;23.56;53.84
65376;BME280;51976;47.332;9.404;2023-08-17T07:00:35;92901.56;;;23.93;52.85
65376;BME280;51976;47.332;9.404;2023-08-17T07:03:01;92894.59;;;24.19;52.52
65376;BME280;51976;47.332;9.404;2023-08-17T07:05:26;92905.78;;;24.49;51.65
65376;BME280;51976;47.332;9.404;2023-08-17T07:07:52;92905.03;;;24.29;52.25
65376;BME280;51976;47.332;9.404;2023-08-17T07:10:36;92905.63;;;24.64;51.46
65376;BME280;51976;47.332;9.404;2023-08-17T07:13:02;92906.03;;;24.21;51.88
65376;BME280;51976;47.332;9.404;2023-08-17T07:15:29;92901.91;;;24.31;51.93
65376;BME280;51976;47.332;9.404;2023-08-17T07:17:55;92898.38;;;24.53;51.24
65376;BME280;51976;47.332;9.404;2023-08-17T07:20:20;92907.25;;;24.23;52.25
65376;BME280;51976;47.332;9.404;2023-08-17T07:22:46;92907.88;;;24.55;51.83
65376;BME280;51976;47.332;9.404;2023-08-17T07:25:11;92910.44;;;25.17;50.10
65376;BME280;51976;47.332;9.404;2023-08-17T07:27:37;92897.84;;;25.19;49.55
65376;BME280;51976;47.332;9.404;2023-08-17T07:30:02;92905.72;;;25.17;49.55
65376;BME280;51976;47.332;9.404;2023-08-17T07:32:28;92899.25;;;25.33;49.97
65376;BME280;51976;47.332;9.404;2023-08-17T07:34:53;92908.25;;;25.56;49.74
65376;BME280;51976;47.332;9.404;2023-08-17T07:37:19;92906.13;;;26.06;48.09
65376;BME280;51976;47.332;9.404;2023-08-17T07:39:45;92908.78;;;25.65;49.48
65376;BME280;51976;47.332;9.404;2023-08-17T07:42:10;92907.41;;;25.25;50.01
65376;BME280;51976;47.332;9.404;2023-08-17T07:44:35;92905.72;;;25.70;49.17
65376;BME280;51976;47.332;9.404;2023-08-17T07:47:01;92911.03;;;25.29;48.76
65376;BME280;51976;47.332;9.404;2023-08-17T07:49:28;92913.03;;;25.33;49.58
65376;BME280;51976;47.332;9.404;2023-08-17T07:51:54;92914.63;;;25.07;49.99
65376;BME280;51976;47.332;9.404;2023-08-17T07:54:19;92909.56;;;25.09;49.30
65376;BME280;51976;47.332;9.404;2023-08-17T07:56:44;92914.75;;;25.14;49.93
65376;BME280;51976;47.332;9.404;2023-08-17T07:59:10;92919.38;;;24.84;51.17
65376;BME280;51976;47.332;9.404;2023-08-17T08:01:35;92912.75;;;25.11;51.55
65376;BME280;51976;47.332;9.404;2023-08-17T08:04:02;92915.63;;;25.48;51.19
65376;BME280;51976;47.332;9.404;2023-08-17T08:06:27;92908.94;;;25.49;50.81
65376;BME280;51976;47.332;9.404;2023-08-17T08:08:52;92917.91;;;26.03;49.71
65376;BME280;51976;47.332;9.404;2023-08-17T08:11:18;92920.63;;;25.66;50.02
65376;BME280;51976;47.332;9.404;2023-08-17T08:13:43;92915.56;;;25.45;50.55
65376;BME280;51976;47.332;9.404;2023-08-17T08:16:09;92913.25;;;25.77;50.81
65376;BME280;51976;47.332;9.404;2023-08-17T08:18:34;92908.88;;;25.72;50.83
65376;BME280;51976;47.332;9.404;2023-08-17T08:21:00;92913.00;;;25.85;50.76
65376;BME280;51976;47.332;9.404;2023-08-17T08:23:25;92915.00;;;25.88;50.44
65376;BME280;51976;47.332;9.404;2023-08-17T08:25:51;92912.47;;;26.10;50.57
65376;BME280;51976;47.332;9.404;2023-08-17T08:28:16;92915.16;;;26.03;50.58
65376;BME280;51976;47.332;9.404;2023-08-17T08:30:42;92913.31;;;26.14;49.70
65376;BME280;51976;47.332;9.404;2023-08-17T08:33:07;92911.81;;;25.86;49.54
65376;BME280;51976;47.332;9.404;2023-08-17T08:35:33;92915.41;;;25.90;50.19
65376;BME280;51976;47.332;9.404;2023-08-17T08:37:59;92912.78;;;26.35;49.66
65376;BME280;51976;47.332;9.404;2023-08-17T08:40:29;92925.59;;;26.94;48.40
65376;BME280;51976;47.332;9.404;2023-08-17T08:42:58;92924.28;;;26.77;49.08
65376;BME280;51976;47.332;9.404;2023-08-17T08:45:24;92921.47;;;26.74;49.95
65376;BME280;51976;47.332;9.404;2023-08-17T08:47:53;92919.00;;;27.09;49.36
65376;BME280;51976;47.332;9.404;2023-08-17T08:50:20;92911.16;;;27.15;48.50
65376;BME280;51976;47.332;9.404;2023-08-17T08:52:56;92914.31;;;26.32;50.61
65376;BME280;51976;47.332;9.404;2023-08-17T08:55:24;92921.53;;;26.40;50.40
65376;BME280;51976;47.332;9.404;2023-08-17T08:57:53;92915.31;;;26.50;50.24
65376;BME280;51976;47.332;9.404;2023-08-17T09:00:19;92910.81;;;26.35;50.31
65376;BME280;51976;47.332;9.404;2023-08-17T09:02:45;92912.16;;;26.48;49.98
65376;BME280;51976;47.332;9.404;2023-08-17T09:05:12;92911.97;;;27.19;48.95
65376;BME280;51976;47.332;9.404;2023-08-17T09:07:39;92908.28;;;27.01;49.26
65376;BME280;51976;47.332;9.404;2023-08-17T09:10:05;92907.41;;;26.93;49.06
65376;BME280;51976;47.332;9.404;2023-08-17T09:12:31;92914.38;;;27.20;48.68
65376;BME280;51976;47.332;9.404;2023-08-17T09:14:56;92911.38;;;27.47;48.26
65376;BME280;51976;47.332;9.404;2023-08-17T09:17:25;92905.69;;;27.84;48.27
65376;BME280;51976;47.332;9.404;2023-08-17T09:19:51;92904.25;;;27.46;48.63
65376;BME280;51976;47.332;9.404;2023-08-17T09:22:37;92911.28;;;27.29;49.76
65376;BME280;51976;47.332;9.404;2023-08-17T09:25:03;92902.78;;;27.59;49.39
65376;BME280;51976;47.332;9.404;2023-08-17T09:27:31;92897.34;;;27.80;49.06
65376;BME280;51976;47.332;9.404;2023-08-17T09:30:05;92909.28;;;27.98;48.53
65376;BME280;51976;47.332;9.404;2023-08-17T09:32:32;92908.91;;;28.04;48.61
65376;BME280;51976;47.332;9.404;2023-08-17T09:35:03;92911.00;;;27.52;49.46
65376;BME280;51976;47.332;9.404;2023-08-17T09:37:31;92908.66;;;26.99;50.54
65376;BME280;51976;47.332;9.404;2023-08-17T09:39:57;92904.13;;;26.77;51.21
65376;BME280;51976;47.332;9.404;2023-08-17T09:42:23;92903.66;;;26.71;51.08
65376;BME280;51976;47.332;9.404;2023-08-17T09:44:49;92905.00;;;26.44;51.18
65376;BME280;51976;47.332;9.404;2023-08-17T09:47:16;92896.56;;;26.33;51.33
65376;BME280;51976;47.332;9.404;2023-08-17T09:49:48;92913.56;;;26.72;50.82
65376;BME280;51976;47.332;9.404;2023-08-17T09:52:13;92910.06;;;26.82;50.12
65376;BME280;51976;47.332;9.404;2023-08-17T09:54:39;92904.31;;;26.98;49.44
65376;BME280;51976;47.332;9.404;2023-08-17T09:57:05;92910.31;;;27.07;50.42
65376;BME280;51976;47.332;9.404;2023-08-17T09:59:31;92908.63;;;26.95;50.03
65376;BME280;51976;47.332;9.404;2023-08-17T10:01:58;92903.56;;;26.60;50.55
65376;BME280;51976;47.332;9.404;2023-08-17T10:04:25;92900.38;;;26.58;51.93
65376;BME280;51976;47.332;9.404;2023-08-17T10:07:03;92897.94;;;26.53;52.10
65376;BME280;51976;47.332;9.404;2023-08-17T10:09:34;92901.75;;;26.38;52.38
65376;BME280;51976;47.332;9.404;2023-08-17T10:12:06;92904.75;;;26.26;52.06
65376;BME280;51976;47.332;9.404;2023-08-17T10:14:39;92911.63;;;26.06;52.63
65376;BME280;51976;47.332;9.404;2023-08-17T10:17:08;92909.06;;;25.86;52.01
65376;BME280;51976;47.332;9.404;2023-08-17T10:19:49;92910.22;;;25.85;53.41
65376;BME280;51976;47.332;9.404;2023-08-17T10:22:21;92911.50;;;25.91;53.58
65376;BME280;51976;47.332;9.404;2023-08-17T10:24:49;92908.63;;;25.84;53.22
65376;BME280;51976;47.332;9.404;2023-08-17T10:27:16;92904.97;;;25.77;52.92
65376;BME280;51976;47.332;9.404;2023-08-17T10:29:42;92906.53;;;25.74;51.96
65376;BME280;51976;47.332;9.404;2023-08-17T10:32:08;92885.53;;;25.66;51.06
65376;BME280;51976;47.332;9.404;2023-08-17T10:34:34;92910.13;;;25.78;52.30
65376;BME280;51976;47.332;9.404;2023-08-17T10:37:01;92904.69;;;25.85;52.75
65376;BME280;51976;47.332;9.404;2023-08-17T10:39:28;92906.19;;;25.79;53.47
65376;BME280;51976;47.332;9.404;2023-08-17T10:41:54;92903.31;;;25.69;54.31
65376;BME280;51976;47.332;9.404;2023-08-17T10:44:42;92901.75;;;25.45;54.86
65376;BME280;51976;47.332;9.404;2023-08-17T10:47:24;92909.13;;;25.34;56.06
65376;BME280;51976;47.332;9.404;2023-08-17T10:49:55;92915.38;;;25.30;57.23
65376;BME280;51976;47.332;9.404;2023-08-17T10:52:29;92917.59;;;25.21;57.69
65376;BME280;51976;47.332;9.404;2023-08-17T10:54:54;92914.75;;;25.14;58.53
65376;BME280;51976;47.332;9.404;2023-08-17T10:57:31;92933.22;;;25.10;59.11
65376;BME280;51976;47.332;9.404;2023-08-17T11:00:08;92924.63;;;25.15;59.18
65376;BME280;51976;47.332;9.404;2023-08-17T11:02:38;92925.97;;;25.02;59.27
65376;BME280;51976;47.332;9.404;2023-08-17T11:05:04;92938.13;;;24.98;59.26
65376;BME280;51976;47.332;9.404;2023-08-17T11:07:40;92934.50;;;24.71;59.28
65376;BME280;51976;47.332;9.404;2023-08-17T11:10:12;92934.78;;;24.66;59.37
65376;BME280;51976;47.332;9.404;2023-08-17T11:12:53;92939.47;;;24.84;58.85
65376;BME280;51976;47.332;9.404;2023-08-17T11:15:23;92937.75;;;24.76;58.82
65376;BME280;51976;47.332;9.404;2023-08-17T11:17:48;92937.81;;;24.80;58.41
65376;BME280;51976;47.332;9.404;2023-08-17T11:20:13;92947.53;;;24.74;58.43
65376;BME280;51976;47.332;9.404;2023-08-17T11:22:39;92948.97;;;24.87;58.11
65376;BME280;51976;47.332;9.404;2023-08-17T11:25:05;92952.38;;;24.80;57.79
65376;BME280;51976;47.332;9.404;2023-08-17T11:27:31;92948.84;;;24.80;58.12
65376;BME280;51976;47.332;9.404;2023-08-17T11:29:56;92948.41;;;24.78;57.71
65376;BME280;51976;47.332;9.404;2023-08-17T11:32:21;92940.72;;;24.90;57.34
65376;BME280;51976;47.332;9.404;2023-08-17T11:34:47;92944.56;;;24.82;56.78
65376;BME280;51976;47.332;9.404;2023-08-17T11:37:12;92937.22;;;24.93;56.88
65376;BME280;51976;47.332;9.404;2023-08-17T11:39:38;92941.84;;;24.86;55.56
65376;BME280;51976;47.332;9.404;2023-08-17T11:42:04;92938.03;;;24.71;56.48
65376;BME280;51976;47.332;9.404;2023-08-17T11:44:29;92933.63;;;24.67;56.96
65376;BME280;51976;47.332;9.404;2023-08-17T11:46:55;92932.84;;;24.66;56.77
65376;BME280;51976;47.332;9.404;2023-08-17T11:49:20;92932.72;;;24.82;56.13
65376;BME280;51976;47.332;9.404;2023-08-17T11:51:49;92929.31;;;24.92;54.39
65376;BME280;51976;47.332;9.404;2023-08-17T11:54:14;92938.59;;;25.03;53.13
65376;BME280;51976;47.332;9.404;2023-08-17T11:56:40;92939.59;;;25.14;53.04
65376;BME280;51976;47.332;9.404;2023-08-17T11:59:10;92937.44;;;25.30;51.58
65376;BME280;51976;47.332;9.404;2023-08-17T12:01:39;92944.91;;;25.56;51.18
65376;BME280;51976;47.332;9.404;2023-08-17T12:04:05;92932.47;;;25.66;51.38
65376;BME280;51976;47.332;9.404;2023-08-17T12:06:31;92948.41;;;25.53;51.64
65376;BME280;51976;47.332;9.404;2023-08-17T12:08:56;92943.66;;;25.24;52.96
65376;BME280;51976;47.332;9.404;2023-08-17T12:11:25;92943.75;;;25.31;52.64
65376;BME280;51976;47.332;9.404;2023-08-17T12:13:51;92945.09;;;25.14;53.39
65376;BME280;51976;47.332;9.404;2023-08-17T12:16:18;92948.31;;;25.20;52.27
65376;BME280;51976;47.332;9.404;2023-08-17T12:18:48;92944.66;;;25.12;51.66
65376;BME280;51976;47.332;9.404;2023-08-17T12:21:13;92934.94;;;25.22;51.76
65376;BME280;51976;47.332;9.404;2023-08-17T12:23:39;92944.72;;;25.16;52.03
65376;BME280;51976;47.332;9.404;2023-08-17T12:26:04;92940.53;;;25.25;52.46
65376;BME280;51976;47.332;9.404;2023-08-17T12:28:29;92944.56;;;25.32;52.64
65376;BME280;51976;47.332;9.404;2023-08-17T12:30:59;92946.72;;;25.45;51.36
65376;BME280;51976;47.332;9.404;2023-08-17T12:33:25;92946.34;;;25.47;51.19
65376;BME280;51976;47.332;9.404;2023-08-17T12:35:50;92953.88;;;25.50;51.04
65376;BME280;51976;47.332;9.404;2023-08-17T12:38:16;92956.69;;;25.53;50.40
65376;BME280;51976;47.332;9.404;2023-08-17T12:40:42;92953.81;;;25.43;50.82
65376;BME280;51976;47.332;9.404;2023-08-17T12:43:07;92955.97;;;25.30;50.55
65376;BME280;51976;47.332;9.404;2023-08-17T12:45:32;92959.69;;;25.41;50.34
65376;BME280;51976;47.332;9.404;2023-08-17T12:47:59;92957.50;;;25.54;50.63
65376;BME280;51976;47.332;9.404;2023-08-17T12:50:25;92957.75;;;25.45;48.86
65376;BME280;51976;47.332;9.404;2023-08-17T12:52:50;92964.94;;;25.50;49.58
65376;BME280;51976;47.332;9.404;2023-08-17T12:55:15;92962.91;;;25.47;48.52
65376;BME280;51976;47.332;9.404;2023-08-17T12:57:41;92966.09;;;25.49;49.28
65376;BME280;51976;47.332;9.404;2023-08-17T13:00:07;92954.16;;;25.15;50.51
65376;BME280;51976;47.332;9.404;2023-08-17T13:02:32;92959.94;;;25.06;50.91